Time;durP1;ratioP1;P1;durP2;ratioP2;P2;SDS_P1;SDS_P2;PMS_P1;PMS_P2;Temp;Humidity;BMP_temperature;BMP_pressure;BME280_temperature;BME280_humidity;BME280_pressure;Samples;Min_cycle;Max_cycle;Signal;HPM_P1;HPM_P2
2022/10/02 00:00:37;;;;;;;28.53;13.17;;;;;;;12.15;100.00;101296.78;5029320;28;20122;-88
2022/10/02 00:03:20;;;;;;;26.23;13.00;;;;;;;12.18;100.00;101301.78;5004321;28;20045;-89
2022/10/02 00:05:50;;;;;;;28.67;12.30;;;;;;;12.21;100.00;101301.41;5020937;28;20116;-88
2022/10/02 00:08:21;;;;;;;28.60;12.20;;;;;;;12.21;100.00;101301.41;5029564;28;20048;-88
2022/10/02 00:10:52;;;;;;;25.40;11.67;;;;;;;12.15;100.00;101294.06;5029775;28;20486;-87
2022/10/02 00:13:23;;;;;;;23.70;10.67;;;;;;;12.18;100.00;101301.78;5028287;28;20443;-88
2022/10/02 00:15:50;;;;;;;27.03;11.37;;;;;;;12.13;100.00;101309.72;5029515;28;20049;-89
2022/10/02 00:18:21;;;;;;;30.00;11.07;;;;;;;12.11;100.00;101309.94;5028690;28;20175;-89
2022/10/02 00:20:59;;;;;;;26.70;11.27;;;;;;;12.06;100.00;101300.78;5029448;28;20068;-87
2022/10/02 00:23:40;;;;;;;26.53;10.57;;;;;;;12.04;100.00;101311.03;5028886;28;20646;-89
2022/10/02 00:26:15;;;;;;;24.03;9.60;;;;;;;11.87;100.00;101283.41;5029285;28;20086;-88
2022/10/02 00:29:32;;;;;;;28.57;10.00;;;;;;;11.96;100.00;101310.16;5029437;28;20037;-88
2022/10/02 00:32:16;;;;;;;25.47;9.07;;;;;;;11.94;100.00;101317.72;5024199;28;20045;-88
2022/10/02 00:34:47;;;;;;;27.60;7.30;;;;;;;12.02;100.00;101307.66;5028917;28;20049;-89
2022/10/02 00:37:24;;;;;;;29.77;8.23;;;;;;;11.95;100.00;101319.38;5028887;28;20061;-88
2022/10/02 00:40:12;;;;;;;26.57;9.27;;;;;;;11.95;100.00;101313.09;5029008;28;20033;-88
2022/10/02 00:42:52;;;;;;;28.53;6.83;;;;;;;11.97;100.00;101306.41;5029759;28;20058;-89
2022/10/02 00:45:44;;;;;;;24.27;6.60;;;;;;;11.94;100.00;101317.72;5029578;28;20335;-87
2022/10/02 00:48:26;;;;;;;28.27;7.50;;;;;;;11.92;100.00;101311.59;5027618;28;20766;-89
2022/10/02 00:51:07;;;;;;;29.57;9.77;;;;;;;11.93;100.00;101312.47;5029070;28;20032;-88
2022/10/02 00:53:57;;;;;;;36.30;11.10;;;;;;;11.92;100.00;101316.22;5029037;28;20077;-89
2022/10/02 00:56:46;;;;;;;33.77;10.00;;;;;;;11.92;100.00;101303.47;5029573;28;20563;-89
2022/10/02 00:59:50;;;;;;;28.43;8.60;;;;;;;11.97;100.00;101311.84;5016417;28;20460;-88
2022/10/02 01:02:24;;;;;;;31.97;8.23;;;;;;;11.96;100.00;101312.88;5031914;28;20491;-89
2022/10/02 01:04:50;;;;;;;27.60;6.60;;;;;;;11.97;100.00;101305.59;5033202;28;20040;-89
2022/10/02 01:07:15;;;;;;;24.47;5.73;;;;;;;11.98;100.00;101310.81;5033199;28;20045;-88
2022/10/02 01:09:41;;;;;;;25.47;6.03;;;;;;;11.96;100.00;101312.88;5032556;28;20060;-90
2022/10/02 01:12:07;;;;;;;30.47;6.37;;;;;;;11.96;100.00;101304.75;5031875;28;20124;-88
2022/10/02 01:14:39;;;;;;;25.90;5.73;;;;;;;11.99;100.00;101309.78;5032195;28;20045;-90
2022/10/02 01:17:18;;;;;;;29.87;6.13;;;;;;;11.98;100.00;101316.25;5032644;28;20511;-89
2022/10/02 01:19:43;;;;;;;22.87;4.87;;;;;;;11.98;100.00;101302.66;5032754;28;20034;-89
2022/10/02 01:22:21;;;;;;;22.70;5.33;;;;;;;12.02;100.00;101307.66;5032065;28;20467;-89
2022/10/02 01:24:54;;;;;;;24.47;5.50;;;;;;;11.91;100.00;101292.81;5006127;28;20123;-87
2022/10/02 01:27:19;;;;;;;27.83;6.07;;;;;;;11.95;100.00;101302.25;5032207;28;20029;-87
2022/10/02 01:29:51;;;;;;;20.37;5.17;;;;;;;12.00;100.00;101310.59;5032171;28;20056;-88
2022/10/02 01:32:17;;;;;;;27.83;5.80;;;;;;;11.94;100.00;101298.69;5030683;28;20083;-88
2022/10/02 01:34:43;;;;;;;25.50;5.20;;;;;;;11.92;100.00;101287.16;5031487;28;20040;-88
2022/10/02 01:37:09;;;;;;;27.40;5.33;;;;;;;12.02;100.00;101316.63;5031920;28;20694;-90
2022/10/02 01:39:36;;;;;;;29.23;5.47;;;;;;;12.02;100.00;101310.38;5006292;28;20048;-88
2022/10/02 01:42:01;;;;;;;26.07;5.07;;;;;;;12.03;100.00;101312.88;5023212;28;20041;-90
2022/10/02 01:44:27;;;;;;;22.03;5.20;;;;;;;12.08;100.00;101312.28;5031947;28;20127;-88
2022/10/02 01:47:25;;;;;;;29.17;5.43;;;;;;;12.07;100.00;101316.03;5031360;28;20060;-89
2022/10/02 01:50:15;;;;;;;26.87;5.43;;;;;;;12.09;100.00;101314.78;5026767;28;20045;-87
2022/10/02 01:52:43;;;;;;;28.00;5.50;;;;;;;12.06;100.00;101304.34;5031961;28;20048;-90
2022/10/02 01:55:15;;;;;;;29.17;5.83;;;;;;;12.18;100.00;101309.13;5031883;28;20089;-91
2022/10/02 01:58:06;;;;;;;27.40;6.50;;;;;;;12.16;100.00;101318.31;5030640;28;20044;-88
2022/10/02 02:00:58;;;;;;;23.60;4.80;;;;;;;12.18;100.00;101314.56;5031601;28;20388;-90
2022/10/02 02:03:58;;;;;;;25.90;5.87;;;;;;;12.19;100.00;101313.50;5019733;28;20048;-88
2022/10/02 02:06:51;;;;;;;29.50;5.70;;;;;;;12.19;100.00;101311.63;5002019;28;20494;-90
2022/10/02 02:09:32;;;;;;;31.80;5.50;;;;;;;12.24;100.00;101319.97;5031595;28;20142;-90
2022/10/02 02:12:35;;;;;;;26.97;5.00;;;;;;;12.26;100.00;101325.19;5030221;28;20488;-90
2022/10/02 02:15:07;;;;;;;26.50;5.60;;;;;;;12.27;100.00;101324.97;5011917;28;20163;-90
2022/10/02 02:17:41;;;;;;;28.40;5.90;;;;;;;12.31;100.00;101334.38;5023406;28;20390;-90
2022/10/02 02:20:17;;;;;;;28.25;5.50;;;;;;;12.35;100.00;101332.09;5022169;28;20131;-87
2022/10/02 02:22:50;;;;;;;29.97;5.50;;;;;;;12.36;100.00;101331.00;5022376;28;20044;-88
2022/10/02 02:25:19;;;;;;;28.37;5.07;;;;;;;12.37;100.00;101323.72;5022202;28;20103;-90
2022/10/02 02:27:51;;;;;;;30.73;5.10;;;;;;;12.39;100.00;101318.88;5022665;28;20048;-89
2022/10/02 02:30:18;;;;;;;30.70;5.50;;;;;;;12.42;100.00;101329.34;5023152;28;20114;-88
2022/10/02 02:32:52;;;;;;;31.93;6.60;;;;;;;12.42;100.00;101323.91;5023109;28;20037;-88
2022/10/02 02:35:45;;;;;;;32.15;5.32;;;;;;;12.42;100.00;101323.91;5021793;28;20473;-86
2022/10/02 02:38:17;;;;;;;25.43;5.80;;;;;;;12.47;100.00;101332.25;5021067;28;20361;-89
2022/10/02 02:40:45;;;;;;;29.80;5.63;;;;;;;12.48;100.00;101332.06;5022229;28;20029;-87
2022/10/02 02:43:21;;;;;;;28.20;5.60;;;;;;;12.47;100.00;101329.53;5022001;28;20029;-88
2022/10/02 02:45:53;;;;;;;30.13;5.87;;;;;;;12.50;100.00;101326.41;5023155;28;20194;-88
2022/10/02 02:48:25;;;;;;;29.47;5.37;;;;;;;12.46;100.00;101330.59;5020833;28;20044;-87
2022/10/02 02:50:59;;;;;;;33.30;5.60;;;;;;;12.50;100.00;101326.41;5022292;28;20044;-87
2022/10/02 02:53:50;;;;;;;31.75;6.68;;;;;;;12.53;100.00;101334.13;5021275;28;20120;-88
2022/10/02 02:56:19;;;;;;;30.20;5.60;;;;;;;12.51;100.00;101330.78;5021600;28;20041;-87
2022/10/02 02:58:54;;;;;;;25.37;5.80;;;;;;;12.56;100.00;101332.88;5019707;28;20071;-87
2022/10/02 03:01:19;;;;;;;31.90;5.67;;;;;;;12.59;100.00;101330.56;5023068;28;20073;-88
2022/10/02 03:03:45;;;;;;;34.27;6.47;;;;;;;12.63;100.00;101336.41;5021587;28;20119;-89
2022/10/02 03:06:20;;;;;;;28.43;5.93;;;;;;;12.64;100.00;101328.03;5009777;28;20543;-88
2022/10/02 03:08:49;;;;;;;27.53;5.97;;;;;;;12.67;100.00;101326.78;5021862;28;20176;-89
2022/10/02 03:11:38;;;;;;;29.20;5.40;;;;;;;12.56;100.00;101306.50;5021574;28;20044;-88
2022/10/02 03:14:39;;;;;;;30.60;5.87;;;;;;;12.72;100.00;101323.44;5020010;28;20529;-88
2022/10/02 03:17:13;;;;;;;26.70;5.67;;;;;;;12.68;100.00;101322.19;5028942;28;20722;-89
2022/10/02 03:19:50;;;;;;;30.50;5.85;;;;;;;12.69;100.00;101321.13;5029503;28;20025;-88
2022/10/02 03:22:43;;;;;;;28.30;5.43;;;;;;;12.66;100.00;101330.53;5004968;28;20558;-87
2022/10/02 03:25:20;;;;;;;25.93;5.80;;;;;;;12.60;100.00;101337.66;5029117;28;20253;-89
2022/10/02 03:28:00;;;;;;;26.67;6.20;;;;;;;12.63;100.00;101330.97;5022747;28;20485;-89
2022/10/02 03:30:26;;;;;;;25.17;5.17;;;;;;;12.65;100.00;101332.41;5030038;28;20061;-87
2022/10/02 03:32:55;;;;;;;25.97;5.77;;;;;;;12.65;100.00;101337.03;5028880;28;20037;-89
2022/10/02 03:35:22;;;;;;;24.87;5.40;;;;;;;12.65;100.00;101342.47;5029829;28;20029;-88
2022/10/02 03:37:51;;;;;;;25.67;5.97;;;;;;;12.70;100.00;101342.69;5030103;28;20171;-90
2022/10/02 03:40:22;;;;;;;26.23;5.57;;;;;;;12.69;100.00;101329.28;5028935;28;20033;-89
2022/10/02 03:42:47;;;;;;;22.57;5.40;;;;;;;12.72;100.00;101335.13;5030043;28;20504;-90
2022/10/02 03:45:12;;;;;;;21.60;5.03;;;;;;;12.69;100.00;101334.72;5029924;28;20112;-90
2022/10/02 03:47:38;;;;;;;21.77;5.37;;;;;;;12.64;100.00;101328.03;5030273;28;20047;-90
2022/10/02 03:50:03;;;;;;;21.67;5.00;;;;;;;12.73;100.00;101347.69;5029352;28;20044;-90
2022/10/02 03:52:30;;;;;;;20.33;5.23;;;;;;;12.72;100.00;101347.91;5004956;28;20124;-89
2022/10/02 03:55:00;;;;;;;22.03;5.47;;;;;;;12.71;100.00;101344.31;5003679;28;20033;-88
2022/10/02 03:57:26;;;;;;;20.60;5.07;;;;;;;12.72;100.00;101339.75;5011033;28;20036;-89
2022/10/02 04:00:11;;;;;;;22.37;5.63;;;;;;;12.74;100.00;101343.06;5029211;28;20099;-88
2022/10/02 04:03:00;;;;;;;17.93;4.43;;;;;;;12.75;100.00;101348.28;5004674;28;20033;-90
2022/10/02 04:05:59;;;;;;;20.83;4.60;;;;;;;12.73;100.00;101346.81;5029322;28;20025;-90
2022/10/02 04:08:50;;;;;;;21.80;4.70;;;;;;;12.69;100.00;101340.13;5028358;28;20083;-90
2022/10/02 04:11:29;;;;;;;16.47;4.70;;;;;;;12.63;100.00;101350.84;5029236;28;20540;-89
2022/10/02 04:14:12;;;;;;;15.00;4.47;;;;;;;12.59;100.00;101340.59;5028987;28;20044;-89
2022/10/02 04:16:50;;;;;;;17.67;3.90;;;;;;;12.57;100.00;101338.09;5029810;28;20060;-89
2022/10/02 04:19:22;;;;;;;14.90;3.53;;;;;;;12.58;100.00;101344.34;5029572;28;20041;-89
2022/10/02 04:22:10;;;;;;;17.47;3.83;;;;;;;12.60;100.00;101340.38;5028420;28;20508;-88
2022/10/02 04:24:46;;;;;;;11.73;3.40;;;;;;;12.55;100.00;101334.78;5030057;28;20041;-88
2022/10/02 04:27:17;;;;;;;16.37;3.60;;;;;;;12.49;100.00;101332.88;5029757;28;20098;-90
2022/10/02 04:29:53;;;;;;;15.90;3.60;;;;;;;12.48;100.00;101332.06;5029129;28;20091;-89
2022/10/02 04:32:31;;;;;;;14.47;3.60;;;;;;;12.45;100.00;101328.94;5003882;28;20026;-90
2022/10/02 04:34:57;;;;;;;15.37;3.90;;;;;;;12.39;100.00;101327.91;5031308;28;20033;-90
2022/10/02 04:37:30;;;;;;;14.73;3.97;;;;;;;12.39;100.00;101329.75;5033003;28;20040;-88
2022/10/02 04:40:14;;;;;;;10.90;4.23;;;;;;;12.30;100.00;101331.88;5032752;28;20050;-88
2022/10/02 04:42:52;;;;;;;20.03;5.53;;;;;;;12.30;100.00;101343.56;5032880;28;20072;-85
2022/10/02 04:45:39;;;;;;;20.47;5.67;;;;;;;12.28;100.00;101353.84;5032250;28;20041;-89
2022/10/02 04:48:11;;;;;;;15.87;5.10;;;;;;;12.26;100.00;101363.22;5033468;28;22169;-88
2022/10/02 04:50:51;;;;;;;14.17;4.90;;;;;;;12.23;100.00;101372.63;5032211;28;20051;-88
2022/10/02 04:53:42;;;;;;;16.73;5.83;;;;;;;12.22;100.00;101373.69;5033245;28;20420;-88
2022/10/02 04:56:36;;;;;;;17.93;5.77;;;;;;;12.24;100.00;101373.47;5032071;28;20131;-89
2022/10/02 04:59:06;;;;;;;19.00;5.73;;;;;;;12.15;100.00;101379.09;5033039;28;20032;-88
2022/10/02 05:01:57;;;;;;;17.27;6.57;;;;;;;12.17;100.00;101378.91;5033231;28;20512;-89
2022/10/02 05:04:29;;;;;;;19.53;6.83;;;;;;;12.16;100.00;101379.97;5032206;28;20028;-90
2022/10/02 05:07:29;;;;;;;19.83;7.67;;;;;;;12.16;100.00;101377.25;5032732;28;20346;-89
2022/10/02 05:10:16;;;;;;;18.97;7.43;;;;;;;12.15;100.00;101381.81;4988759;28;20400;-89
2022/10/02 05:13:03;;;;;;;21.73;7.77;;;;;;;12.18;100.00;101379.75;5032083;28;20147;-87
2022/10/02 05:15:38;;;;;;;20.40;7.50;;;;;;;12.18;100.00;101383.28;5032662;28;20136;-89
2022/10/02 05:18:13;;;;;;;22.00;8.23;;;;;;;12.14;100.00;101382.91;5032121;28;20021;-89
2022/10/02 05:20:49;;;;;;;22.30;7.80;;;;;;;12.14;100.00;101382.91;5032509;28;20385;-88
2022/10/02 05:23:44;;;;;;;21.93;8.03;;;;;;;12.17;100.00;101384.31;5031695;28;20040;-88
2022/10/02 05:26:37;;;;;;;22.15;8.45;;;;;;;12.20;100.00;101388.50;5006662;28;20053;-88
2022/10/02 05:29:14;;;;;;;24.13;8.67;;;;;;;12.20;100.00;101392.09;5031943;28;20048;-87
2022/10/02 05:31:46;;;;;;;25.20;9.00;;;;;;;12.21;100.00;101396.47;5030439;28;20492;-88
2022/10/02 05:34:14;;;;;;;26.40;9.17;;;;;;;12.27;100.00;101398.34;5032221;28;20033;-88
2022/10/02 05:36:56;;;;;;;23.83;9.20;;;;;;;12.23;100.00;101407.97;5032112;28;20032;-88
2022/10/02 05:39:29;;;;;;;24.83;9.43;;;;;;;12.26;100.00;101404.81;5031547;28;20047;-86
2022/10/02 05:42:25;;;;;;;24.93;11.00;;;;;;;12.24;100.00;101400.63;5031821;28;20046;-89
2022/10/02 05:44:58;;;;;;;29.87;12.33;;;;;;;12.30;100.00;101391.66;5031690;28;20048;-88
2022/10/02 05:47:28;;;;;;;29.70;12.82;;;;;;;12.29;100.00;101407.13;5031618;28;20116;-88
2022/10/02 05:50:24;;;;;;;32.70;13.50;;;;;;;12.34;100.00;101414.66;5029802;28;20036;-88
2022/10/02 05:53:02;;;;;;;;;;;;;;;12.36;100.00;101419.88;5030243;28;20045;-89
2022/10/02 05:55:38;;;;;;;32.70;14.33;;;;;;;12.42;100.00;101421.75;5031171;28;19935;-89
2022/10/02 05:58:17;;;;;;;29.77;14.83;;;;;;;12.41;100.00;101420.06;5030421;28;20036;-89
2022/10/02 06:00:49;;;;;;;29.50;15.00;;;;;;;12.36;100.00;101412.53;5031080;28;20061;-90
2022/10/02 06:03:28;;;;;;;36.97;16.20;;;;;;;12.44;100.00;101425.09;5031981;28;20049;-88
2022/10/02 06:06:09;;;;;;;33.27;15.47;;;;;;;12.43;100.00;101426.13;5030283;28;20052;-91
2022/10/02 06:08:45;;;;;;;33.83;16.63;;;;;;;12.40;100.00;101408.38;5031284;28;20508;-87
2022/10/02 06:11:22;;;;;;;34.00;16.07;;;;;;;12.44;100.00;101414.22;5030245;28;20067;-87
2022/10/02 06:14:04;;;;;;;35.33;16.53;;;;;;;12.47;100.00;101425.50;5031962;28;20049;-88
2022/10/02 06:16:37;;;;;;;37.40;16.83;;;;;;;12.52;100.00;101438.47;5030553;28;20076;-88
2022/10/02 06:19:10;;;;;;;34.40;15.87;;;;;;;12.50;100.00;101426.97;5031403;28;20599;-88
2022/10/02 06:21:46;;;;;;;35.77;16.63;;;;;;;12.54;100.00;101443.69;5029182;28;20117;-88
2022/10/02 06:24:17;;;;;;;34.03;15.70;;;;;;;12.57;100.00;101451.44;5031226;28;20041;-88
2022/10/02 06:26:59;;;;;;;34.33;16.20;;;;;;;12.61;100.00;101453.50;5030902;28;21412;-88
2022/10/02 06:29:35;;;;;;;31.53;15.00;;;;;;;12.59;100.00;101444.75;5022870;28;20041;-89
2022/10/02 06:32:17;;;;;;;36.60;15.30;;;;;;;12.65;100.00;101449.31;5038489;28;20025;-90
2022/10/02 06:34:44;;;;;;;36.63;15.83;;;;;;;12.71;100.00;101446.81;5027341;28;20044;-89
2022/10/02 06:37:12;;;;;;;34.03;15.40;;;;;;;12.75;100.00;101445.34;5026913;28;20028;-89
2022/10/02 06:40:07;;;;;;;36.70;15.33;;;;;;;12.78;100.00;101444.91;5039529;28;20061;-92
2022/10/02 06:42:51;;;;;;;;;;;;;;;12.81;100.00;101439.91;5034818;28;20351;-90
2022/10/02 06:45:30;;;;;;;34.93;13.83;;;;;;;12.85;100.00;101448.44;5035019;28;19966;-90
2022/10/02 06:48:29;;;;;;;33.83;13.67;;;;;;;12.87;100.00;101465.41;5034954;28;20072;-91
2022/10/02 06:51:12;;;;;;;32.17;12.60;;;;;;;12.90;100.00;101464.97;5034747;28;20022;-92
2022/10/02 06:53:38;;;;;;;32.50;12.00;;;;;;;12.94;100.00;101468.94;5034829;28;20025;-90
2022/10/02 06:56:42;;;;;;;31.50;12.07;;;;;;;12.97;100.00;101481.28;5034863;28;20508;-90
2022/10/02 06:59:13;;;;;;;31.10;10.90;;;;;;;13.02;100.00;101483.38;5029237;28;20044;-91
2022/10/02 07:01:47;;;;;;;34.37;11.00;;;;;;;13.03;100.00;101477.72;5033455;28;20037;-90
2022/10/02 07:04:16;;;;;;;28.55;9.32;;;;;;;13.05;100.00;101475.59;5038542;28;20028;-92
2022/10/02 07:06:44;;;;;;;27.70;9.67;;;;;;;13.11;100.00;101479.34;5035665;28;20029;-90
2022/10/02 07:09:37;;;;;;;27.80;9.40;;;;;;;13.14;100.00;101489.84;5028688;28;20385;-88
2022/10/02 07:12:42;;;;;;;27.33;9.50;;;;;;;13.11;100.00;101466.59;5004723;28;20120;-88
2022/10/02 07:15:36;;;;;;;27.73;8.73;;;;;;;13.20;100.00;101483.53;5026726;28;20040;-90
2022/10/02 07:18:41;;;;;;;29.23;8.33;;;;;;;13.26;100.00;101488.13;5027354;28;20072;-89
2022/10/02 07:21:15;;;;;;;;;;;;;;;13.31;100.00;101485.59;5027923;28;20559;-89
2022/10/02 07:24:24;;;;;;;28.77;9.18;;;;;;;13.31;100.00;101488.31;5027174;28;20320;-89
2022/10/02 07:27:13;;;;;;;28.83;9.57;;;;;;;13.32;100.00;101487.25;5027231;28;20040;-88
2022/10/02 07:29:57;;;;;;;24.80;9.10;;;;;;;13.33;100.00;101488.94;5027359;28;20043;-88
2022/10/02 07:32:41;;;;;;;23.77;9.27;;;;;;;13.34;100.00;101487.88;5027164;28;20048;-88
2022/10/02 07:35:14;;;;;;;27.75;9.70;;;;;;;13.38;100.00;101495.66;5027582;28;20037;-89
2022/10/02 07:37:43;;;;;;;26.63;9.80;;;;;;;13.38;100.00;101501.09;5025864;28;20040;-89
2022/10/02 07:40:11;;;;;;;25.40;9.80;;;;;;;13.39;100.00;101498.16;5026250;28;20037;-90
2022/10/02 07:42:46;;;;;;;27.20;10.03;;;;;;;13.42;100.00;101503.19;5027190;28;20043;-89
2022/10/02 07:45:38;;;;;;;24.47;10.63;;;;;;;13.51;100.00;101510.03;5021238;28;20041;-90
2022/10/02 07:48:09;;;;;;;25.40;10.63;;;;;;;13.55;100.00;101513.19;5000035;28;20034;-92
2022/10/02 07:51:45;;;;;;;26.77;10.70;;;;;;;13.57;100.00;101505.66;5026914;28;20040;-90
2022/10/02 07:54:03;;;;;;;24.70;10.17;;;;;;;13.67;100.00;101506.00;5027394;28;20497;-89
2022/10/02 07:56:29;;;;;;;25.27;10.50;;;;;;;13.87;100.00;101515.13;5026904;28;20029;-89
2022/10/02 07:59:07;;;;;;;24.57;10.47;;;;;;;14.02;100.00;101516.53;5005179;28;20051;-90
2022/10/02 08:01:37;;;;;;;22.13;10.20;;;;;;;14.11;100.00;101510.81;5005004;28;20041;-89
2022/10/02 08:04:23;;;;;;;22.70;9.63;;;;;;;14.27;100.00;101521.19;5026628;28;20037;-88
2022/10/02 08:06:55;;;;;;;21.83;9.83;;;;;;;14.27;100.00;101523.91;5026602;28;20532;-88
2022/10/02 08:09:34;;;;;;;22.03;10.20;;;;;;;14.36;100.00;101524.50;5027479;28;20472;-89
2022/10/02 08:12:15;;;;;;;21.87;10.20;;;;;;;14.31;100.00;101527.88;5029385;28;20037;-90
2022/10/02 08:14:44;;;;;;;23.30;10.13;;;;;;;14.34;100.00;101535.59;5031233;28;20681;-88
2022/10/02 08:17:22;;;;;;;22.93;10.40;;;;;;;14.42;100.00;101539.13;5029956;28;20053;-91
2022/10/02 08:19:51;;;;;;;20.63;9.90;;;;;;;14.39;100.00;101545.84;5031184;28;20393;-88
2022/10/02 08:22:28;;;;;;;21.20;10.17;;;;;;;14.43;100.00;101549.81;5031106;28;20033;-89
2022/10/02 08:25:06;;;;;;;20.77;10.43;;;;;;;14.46;100.00;101556.72;5030707;28;20033;-91
2022/10/02 08:27:53;;;;;;;23.30;10.30;;;;;;;14.49;100.00;101557.09;5030999;28;20465;-88
2022/10/02 08:30:19;;;;;;;18.47;9.67;;;;;;;14.49;100.00;101559.00;5031066;28;20030;-89
2022/10/02 08:32:46;;;;;;;21.70;8.93;;;;;;;14.53;100.00;101563.78;5030701;28;20194;-91
2022/10/02 08:35:14;;;;;;;24.30;10.00;;;;;;;14.56;100.00;101559.78;5030794;28;20045;-88
2022/10/02 08:37:48;;;;;;;21.20;9.23;;;;;;;14.59;100.00;101564.81;5030756;28;20038;-89
2022/10/02 08:40:41;;;;;;;22.60;9.95;;;;;;;14.71;100.00;101573.13;5031115;28;20032;-89
2022/10/02 08:43:28;;;;;;;20.40;8.70;;;;;;;14.70;100.00;101574.19;5030246;28;20107;-89
2022/10/02 08:46:22;;;;;;;20.63;8.23;;;;;;;14.79;100.00;101583.75;5030115;28;21532;-91
2022/10/02 08:49:38;;;;;;;19.07;6.97;;;;;;;14.79;100.00;101577.47;5031078;28;20354;-88
2022/10/02 08:52:19;;;;;;;18.03;6.73;;;;;;;14.74;100.00;101580.03;4993318;28;20110;-88
2022/10/02 08:55:08;;;;;;;19.03;6.27;;;;;;;14.80;100.00;101593.63;5030485;28;20052;-90
2022/10/02 08:58:26;;;;;;;15.07;6.10;;;;;;;14.87;100.00;101598.19;5029146;28;20121;-89
2022/10/02 09:01:08;;;;;;;18.77;6.40;;;;;;;14.83;100.00;101595.91;5029894;28;20036;-89
2022/10/02 09:04:14;;;;;;;19.40;5.80;;;;;;;14.83;100.00;101603.25;5031015;28;20576;-90
2022/10/02 09:07:04;;;;;;;17.73;5.63;;;;;;;14.79;100.00;101607.47;5030164;28;20032;-90
2022/10/02 09:10:20;;;;;;;16.37;5.23;;;;;;;14.77;100.00;101613.16;5030758;28;20041;-89
2022/10/02 09:13:27;;;;;;;18.17;5.63;;;;;;;14.86;100.00;101621.91;5014208;28;20041;-90
2022/10/02 09:16:09;;;;;;;14.47;5.47;;;;;;;14.80;100.00;101606.44;5028980;28;20087;-89
2022/10/02 09:18:58;;;;;;;19.17;5.40;;;;;;;14.80;100.00;101606.44;5029824;28;20624;-90
2022/10/02 09:21:51;;;;;;;16.37;4.60;;;;;;;14.93;100.00;101611.78;5007443;28;20957;-93
2022/10/02 09:24:25;;;;;;;18.27;4.80;;;;;;;15.03;100.00;101612.09;5030026;28;20041;-93
2022/10/02 09:27:14;;;;;;;15.13;4.45;;;;;;;15.13;100.00;101611.59;5029624;28;20086;-93
2022/10/02 09:30:14;;;;;;;17.03;4.53;;;;;;;15.32;100.00;101620.66;5030100;28;20115;-92
2022/10/02 09:33:21;;;;;;;19.33;4.57;;;;;;;15.35;100.00;101613.91;5029609;28;20034;-89
2022/10/02 09:35:56;;;;;;;13.77;3.87;;;;;;;15.32;100.00;101620.66;4989858;28;20045;-88
2022/10/02 09:38:37;;;;;;;18.07;4.23;;;;;;;15.30;100.00;101613.75;5029951;28;20812;-88
2022/10/02 09:41:29;;;;;;;13.80;3.80;;;;;;;15.36;100.00;101621.88;5029235;28;20182;-89
2022/10/02 09:44:13;;;;;;;16.20;3.60;;;;;;;15.45;100.00;101625.19;5029017;28;20748;-89
2022/10/02 09:46:55;;;;;;;15.68;3.97;;;;;;;15.40;100.00;101621.47;5029431;28;20587;-92
2022/10/02 09:49:48;;;;;;;17.30;3.70;;;;;;;15.49;100.00;101623.66;5027939;28;20031;-87
2022/10/02 09:52:38;;;;;;;16.77;3.70;;;;;;;15.60;99.72;101630.28;5029464;28;20044;-89
2022/10/02 09:55:16;;;;;;;16.17;3.93;;;;;;;15.60;99.51;101635.75;5029319;28;20033;-89
2022/10/02 09:58:15;;;;;;;15.83;3.83;;;;;;;15.69;99.72;101634.38;5028128;28;20367;-88
2022/10/02 10:01:02;;;;;;;11.30;2.80;;;;;;;15.88;98.81;101639.03;5029943;28;20052;-91
2022/10/02 10:04:08;;;;;;;17.20;3.20;;;;;;;15.89;97.14;101629.78;5029168;28;20029;-92
2022/10/02 10:07:10;;;;;;;20.15;3.95;;;;;;;16.18;98.17;101641.81;5028809;28;20112;-88
2022/10/02 10:10:08;;;;;;;15.70;3.27;;;;;;;16.33;96.14;101639.53;5029550;28;20054;-89
2022/10/02 10:12:40;;;;;;;13.93;3.57;;;;;;;16.48;96.90;101632.81;5028930;28;20548;-90
2022/10/02 10:15:26;;;;;;;15.77;3.20;;;;;;;16.54;91.99;101642.81;5028934;28;20047;-90
2022/10/02 10:18:38;;;;;;;14.17;2.97;;;;;;;16.84;94.39;101637.31;5028560;28;20172;-92
2022/10/02 10:21:31;;;;;;;11.97;3.20;;;;;;;16.83;91.39;101640.28;5029220;28;20033;-90
2022/10/02 10:24:34;;;;;;;19.00;3.67;;;;;;;16.85;89.84;101649.13;5028669;28;20545;-92
2022/10/02 10:27:14;;;;;;;13.87;3.10;;;;;;;16.54;88.46;101643.66;5028227;28;20056;-93
2022/10/02 10:29:58;;;;;;;13.77;2.70;;;;;;;16.46;85.99;101659.56;5028452;28;20043;-90
2022/10/02 10:32:45;;;;;;;16.35;3.08;;;;;;;16.46;88.20;101665.03;5028125;28;20041;-91
2022/10/02 10:35:24;;;;;;;13.27;2.60;;;;;;;16.74;86.88;101663.56;5028289;28;20037;-88
2022/10/02 10:40:49;;;;;;;13.95;3.30;;;;;;;16.82;84.87;101683.25;5028184;28;20056;-90
2022/10/02 10:43:14;;;;;;;14.53;2.80;;;;;;;16.66;84.79;101679.25;5006449;28;20037;-91
2022/10/02 10:46:06;;;;;;;15.07;3.50;;;;;;;16.67;83.00;101680.94;5029323;28;20354;-91
2022/10/02 10:48:37;;;;;;;16.77;3.07;;;;;;;16.57;80.88;101690.78;5028921;28;20381;-93
2022/10/02 10:51:21;;;;;;;15.07;2.70;;;;;;;16.69;81.81;101692.47;5028104;28;20441;-91
2022/10/02 10:54:23;;;;;;;11.73;2.87;;;;;;;16.69;83.88;101687.00;5028047;28;20041;-88
2022/10/02 10:56:58;;;;;;;14.60;2.80;;;;;;;16.72;81.68;101699.38;5027834;28;20052;-88
2022/10/02 11:00:01;;;;;;;13.33;3.40;;;;;;;16.68;80.12;101688.06;5028481;28;20120;-90
2022/10/02 11:02:52;;;;;;;12.57;3.00;;;;;;;16.65;78.17;101679.50;5027812;28;20044;-92
2022/10/02 11:05:48;;;;;;;15.90;3.47;;;;;;;16.72;79.37;101672.03;5026814;28;20054;-89
2022/10/02 11:08:32;;;;;;;15.13;3.10;;;;;;;16.77;79.03;101690.47;5027882;28;20066;-92
2022/10/02 11:11:45;;;;;;;15.20;2.80;;;;;;;16.77;79.30;101685.84;5027564;28;20041;-91
2022/10/02 11:14:29;;;;;;;13.90;3.27;;;;;;;16.81;78.36;101676.09;5016103;28;20045;-89
2022/10/02 11:17:31;;;;;;;12.00;2.88;;;;;;;16.89;77.52;101685.94;5026920;28;20408;-91
2022/10/02 11:20:21;;;;;;;13.40;2.80;;;;;;;16.81;77.60;101688.94;5031200;28;20044;-91
2022/10/02 11:22:59;;;;;;;14.60;3.30;;;;;;;16.78;79.21;101694.88;5023815;28;20044;-92
2022/10/02 11:25:59;;;;;;;13.30;2.57;;;;;;;16.73;76.78;101689.25;5036097;28;20037;-90
2022/10/02 11:28:35;;;;;;;13.07;2.93;;;;;;;16.63;76.85;101698.88;5038156;28;20033;-92
2022/10/02 11:31:28;;;;;;;12.67;2.50;;;;;;;16.64;78.44;101707.91;5049352;28;20035;-92
2022/10/02 11:33:54;;;;;;;12.77;2.60;;;;;;;16.48;76.96;101706.66;5042627;28;20386;-95
2022/10/02 11:36:41;;;;;;;11.53;2.57;;;;;;;16.35;77.67;101697.56;5037439;28;20024;-93
2022/10/02 11:39:35;;;;;;;14.40;2.70;;;;;;;16.37;79.08;101711.84;5033777;28;20431;-93
2022/10/02 11:42:15;;;;;;;12.00;2.90;;;;;;;16.23;80.90;101702.13;5033321;28;20124;-91
2022/10/02 11:44:55;;;;;;;11.90;2.70;;;;;;;16.15;80.30;101714.19;5027551;28;20036;-92
2022/10/02 11:47:46;;;;;;;12.50;2.60;;;;;;;16.13;80.49;101710.00;5036031;28;20017;-93
2022/10/02 11:50:40;;;;;;;15.33;3.00;;;;;;;16.01;83.45;101710.78;5024615;28;20116;-91
2022/10/02 11:53:17;;;;;;;14.60;2.78;;;;;;;15.89;86.50;101712.59;5045555;28;20100;-93
2022/10/02 11:56:05;;;;;;;17.57;3.13;;;;;;;15.90;86.71;101710.69;5051095;28;20138;-92
2022/10/02 11:59:08;;;;;;;12.00;2.60;;;;;;;15.91;86.04;101721.41;5043650;28;20028;-93
2022/10/02 12:01:56;;;;;;;15.87;2.80;;;;;;;15.94;86.24;101720.97;5031054;28;20036;-93
2022/10/02 12:04:46;;;;;;;15.30;2.70;;;;;;;15.95;84.64;101710.84;5020761;28;20111;-89
2022/10/02 12:07:14;;;;;;;13.67;3.00;;;;;;;15.96;85.33;101713.34;5030534;28;20068;-90
2022/10/02 12:09:48;;;;;;;12.20;2.57;;;;;;;16.02;83.51;101722.56;5043354;28;20021;-94
2022/10/02 12:12:47;;;;;;;12.40;2.50;;;;;;;16.07;80.83;101719.16;5030527;28;20033;-92
2022/10/02 12:15:28;;;;;;;11.00;2.30;;;;;;;15.99;78.12;101723.84;5021635;28;20178;-92